createdAt,value
2022-08-17T00:07:24.111Z,80.62
2022-08-17T00:17:27.670Z,82.54
2022-08-17T00:27:30.400Z,86.92
2022-08-17T00:37:33.322Z,89.16
2022-08-17T00:47:36.010Z,91.22
2022-08-17T00:57:46.855Z,92.48
2022-08-17T01:07:53.548Z,94.77
2022-08-17T01:17:56.481Z,96.25
2022-08-17T01:27:59.022Z,95.72
2022-08-17T01:38:01.552Z,96.11
2022-08-17T01:48:04.282Z,96.42
2022-08-17T01:58:10.159Z,97.30
2022-08-17T02:08:19.843Z,97.80
2022-08-17T02:18:23.783Z,98.22
2022-08-17T02:28:26.919Z,99.39
2022-08-17T02:38:29.737Z,98.89
2022-08-17T02:48:32.699Z,98.93
2022-08-17T02:58:36.278Z,99.24
2022-08-17T03:08:38.537Z,100.00
2022-08-17T03:18:40.860Z,100.00
2022-08-17T03:28:43.443Z,100.00
2022-08-17T03:38:45.809Z,100.00
2022-08-17T03:49:07.508Z,100.00
2022-08-17T03:59:20.883Z,100.00
2022-08-17T04:09:25.597Z,100.00
2022-08-17T04:19:28.912Z,100.00
2022-08-17T04:29:49.939Z,100.00
2022-08-17T04:40:14.316Z,100.00
2022-08-17T04:50:17.168Z,100.00
2022-08-17T05:00:19.801Z,100.00
2022-08-17T05:10:24.513Z,100.00
2022-08-17T05:20:28.493Z,100.00
2022-08-17T05:30:32.379Z,100.00
2022-08-17T05:40:43.265Z,100.00
2022-08-17T05:51:11.614Z,100.00
2022-08-17T06:01:56.394Z,100.00
2022-08-17T06:12:05.401Z,100.00
2022-08-17T06:22:15.945Z,100.00
2022-08-17T06:32:20.088Z,100.00
2022-08-17T06:43:05.474Z,100.00
2022-08-17T06:53:28.823Z,100.00
2022-08-17T07:03:57.969Z,100.00
2022-08-17T07:14:03.604Z,100.00
2022-08-17T07:24:26.377Z,99.51
2022-08-17T07:35:10.700Z,98.79
2022-08-17T07:45:35.226Z,92.77
2022-08-17T07:55:41.934Z,92.58
2022-08-17T08:05:57.941Z,93.37
2022-08-17T08:16:30.168Z,91.97
2022-08-17T08:26:47.843Z,92.73
2022-08-17T08:37:22.598Z,88.91
2022-08-17T08:48:53.251Z,85.38
2022-08-17T09:10:57.117Z,86.30
2022-08-17T09:32:37.409Z,97.42
2022-08-17T09:53:31.665Z,94.69
2022-08-17T10:26:28.507Z,83.31
2022-08-17T10:37:04.572Z,87.90
2022-08-17T10:47:10.400Z,79.54
2022-08-17T10:57:45.851Z,84.38
2022-08-17T11:07:52.247Z,82.55
2022-08-17T11:18:33.517Z,70.53
2022-08-17T11:28:52.544Z,68.59
2022-08-17T11:39:05.204Z,57.71
2022-08-17T12:12:38.441Z,61.21
2022-08-17T12:57:00.448Z,43.43
2022-08-17T13:07:07.396Z,49.32
2022-08-17T13:17:29.996Z,45.29
2022-08-17T13:27:45.875Z,39.86
2022-08-17T13:38:10.005Z,41.98
2022-08-17T13:48:32.966Z,45.17
2022-08-17T13:58:42.673Z,44.98
2022-08-17T14:08:45.441Z,47.62
2022-08-17T14:18:56.650Z,50.35
2022-08-17T14:29:04.854Z,55.39
2022-08-17T14:39:26.324Z,66.40
2022-08-17T14:49:30.674Z,86.85
2022-08-17T14:59:34.392Z,97.70
2022-08-17T15:09:40.448Z,99.20
2022-08-17T15:19:44.441Z,100.00
2022-08-17T15:29:51.218Z,100.00
2022-08-17T15:39:55.427Z,100.00
2022-08-17T15:50:00.286Z,99.59
2022-08-17T16:00:07.607Z,98.72
2022-08-17T16:10:14.136Z,97.54
2022-08-17T16:20:21.103Z,98.62
2022-08-17T16:30:26.568Z,98.94
2022-08-17T16:40:31.309Z,100.00
2022-08-17T16:51:02.985Z,100.00
2022-08-17T17:01:11.460Z,100.00
2022-08-17T17:11:34.414Z,100.00
2022-08-17T17:21:52.448Z,100.00
2022-08-17T17:32:14.136Z,100.00
2022-08-17T17:42:25.196Z,100.00
2022-08-17T17:52:39.441Z,100.00
2022-08-17T18:02:55.438Z,100.00
2022-08-17T18:13:18.214Z,100.00
2022-08-17T18:23:27.068Z,100.00
2022-08-17T18:33:31.370Z,100.00
2022-08-17T18:43:53.103Z,100.00
2022-08-17T18:54:18.368Z,100.00
2022-08-17T19:04:38.814Z,100.00
2022-08-17T19:14:42.739Z,100.00
2022-08-17T19:24:47.769Z,100.00
2022-08-17T19:34:51.592Z,100.00
2022-08-17T19:45:13.068Z,100.00
2022-08-17T19:55:32.361Z,100.00
2022-08-17T20:06:08.698Z,100.00
2022-08-17T20:16:05.787Z,100.00
2022-08-17T20:26:08.479Z,100.00
2022-08-17T20:36:25.048Z,100.00
2022-08-17T20:46:33.045Z,100.00
2022-08-17T20:56:45.051Z,100.00
2022-08-17T21:07:25.430Z,100.00
2022-08-17T21:17:36.842Z,100.00
2022-08-17T21:27:59.187Z,100.00
2022-08-17T21:38:05.673Z,100.00
2022-08-17T21:48:16.639Z,100.00
2022-08-17T21:58:34.647Z,100.00
2022-08-17T22:08:37.501Z,100.00
2022-08-17T22:18:41.492Z,100.00
2022-08-17T22:28:52.743Z,100.00
2022-08-17T22:39:08.145Z,100.00
2022-08-17T22:49:11.363Z,100.00
2022-08-17T22:59:32.640Z,100.00
2022-08-17T23:09:36.295Z,100.00
2022-08-17T23:19:39.102Z,100.00
2022-08-17T23:29:42.901Z,100.00
2022-08-17T23:39:45.847Z,100.00
2022-08-17T23:49:48.483Z,100.00
2022-08-17T23:59:56.603Z,100.00
